Darstellungsparameter: Aktuell verwendete Einstellungen:
Skalierung der Graphiken ... ?
xyx+y,   Skalierungsfaktor:      Skalierung: Modus: x, Faktor: 1
Darstellungszeitraum ... ?
Vom - - bis: - -   Zeitraum: 06.11.2009 - 08.11.2009
Min/Max/Avg-Anzeige ... ?
Zeige MMA aktuell
Zeige MMA Monat
Zeige MMA alles
Zeige --A aktuell
Zeige --A Monat
Zeige --A alles
Keine MMA-Anzeige
MMA:
Average (ber die Originaldaten)
MMA-Basis: 06.11.2009 - 08.11.2009
Quicknavigation für Darstellung... ?
Tage:      1T, 2T, 3T, 5T -1T -2T -3T -5T +1T +2T +3T +5T
Wochen: 1W, 2W, 3W -1W -2W -3W +1W +2W +3W
Monate: 1M, 3M, 6M -1M -3M -6M +1M +3M +6M
Jahre:    1J, 3J, 5J, 10J -1J -3J -5J -10J +1J +3J +5J +10J
Nutze für die Darstellung ... ?
Originaldaten oder Mittelwerte auf ...
Stundenbasis Tagesbasis Wochenbasis
Monatsbasis Jahresbasis      Datenbasis: Original-Daten
Darstellen als:
Statistik (Auto) Statistik J:M      Darstellung:
Zur Graphik,    zurück zur Übersicht aller Sensoren.
 
Tabellarische Datenbersicht: ?
 
Sensor: Nr:Datum:Temp:Abs-Feuchte:Windchill:Wind:
Aussen-T/F 1 06-11-2009 00:00:02 9.3 C 6.56 g/m*3 9.3 C 0 km/h
2 06-11-2009 00:12:02 9.1 C 6.48 g/m*3 9.1 C 0 km/h
3 06-11-2009 00:24:02 8.9 C 6.57 g/m*3 8.9 C 0 km/h
4 06-11-2009 00:36:02 8.9 C 6.57 g/m*3 8.9 C 0 km/h
5 06-11-2009 00:48:02 8.9 C 6.57 g/m*3 8.9 C 0 km/h
6 06-11-2009 01:00:03 9.1 C 6.48 g/m*3 9.1 C 0 km/h
7 06-11-2009 01:12:03 9.2 C 6.43 g/m*3 9.2 C 0 km/h
8 06-11-2009 01:24:03 9.2 C 6.52 g/m*3 9.2 C 0 km/h
9 06-11-2009 01:36:03 9.2 C 6.52 g/m*3 9.2 C 0 km/h
10 06-11-2009 01:48:03 9.2 C 6.52 g/m*3 9.2 C 0 km/h
11 06-11-2009 02:00:03 9 C 6.44 g/m*3 9 C 0 km/h
12 06-11-2009 02:12:03 8.9 C 6.57 g/m*3 8.9 C 0 km/h
13 06-11-2009 02:24:03 9 C 6.52 g/m*3 9 C 0 km/h
14 06-11-2009 02:36:03 9 C 6.52 g/m*3 9 C 0 km/h
15 06-11-2009 02:48:03 9.1 C 6.57 g/m*3 9.1 C 0 km/h
16 06-11-2009 03:00:03 9 C 6.52 g/m*3 9 C 0 km/h
17 06-11-2009 03:12:03 8.8 C 6.53 g/m*3 8.8 C 0 km/h
18 06-11-2009 03:24:03 8.9 C 6.57 g/m*3 8.9 C 0 km/h
19 06-11-2009 03:36:03 8.9 C 6.57 g/m*3 8.9 C 0 km/h
20 06-11-2009 03:48:03 9 C 6.52 g/m*3 9 C 0 km/h
21 06-11-2009 04:00:03 9 C 6.61 g/m*3 9 C 0 km/h
22 06-11-2009 04:12:03 9 C 6.61 g/m*3 9 C 0 km/h
23 06-11-2009 04:24:03 9 C 6.61 g/m*3 9 C 0 km/h
24 06-11-2009 04:36:03 9 C 6.61 g/m*3 9 C 0 km/h
25 06-11-2009 04:48:04 9 C 6.7 g/m*3 9 C 0 km/h
Sensor: Nr:Datum:Temp:Abs-Feuchte:Windchill:Wind:
Aussen-T/F 26 06-11-2009 05:00:04 8.8 C 6.7 g/m*3 8.8 C 0 km/h
27 06-11-2009 05:12:04 8.9 C 6.83 g/m*3 8.9 C 0 km/h
28 06-11-2009 05:24:04 9 C 6.79 g/m*3 9 C 0 km/h
29 06-11-2009 05:36:04 9 C 6.79 g/m*3 9 C 0 km/h
30 06-11-2009 05:48:04 9 C 6.79 g/m*3 9 C 0 km/h
31 06-11-2009 06:00:04 9.1 C 6.83 g/m*3 9.1 C 0 km/h
32 06-11-2009 06:12:04 9.1 C 6.83 g/m*3 9.1 C 0 km/h
33 06-11-2009 06:24:04 9.1 C 6.83 g/m*3 9.1 C 0 km/h
34 06-11-2009 06:36:04 9.1 C 6.83 g/m*3 9.1 C 0 km/h
35 06-11-2009 06:48:04 9 C 6.79 g/m*3 9 C 0 km/h
36 06-11-2009 07:00:04 9 C 6.7 g/m*3 9 C 0 km/h
37 06-11-2009 07:12:02 9.1 C 6.74 g/m*3 9.1 C 0 km/h
38 06-11-2009 07:24:02 9.3 C 6.74 g/m*3 9.3 C 0 km/h
39 06-11-2009 07:36:02 9 C 6.61 g/m*3 9 C 0 km/h
40 06-11-2009 07:48:02 9 C 6.61 g/m*3 9 C 0 km/h
41 06-11-2009 08:00:02 9 C 6.7 g/m*3 9 C 0 km/h
42 06-11-2009 08:12:02 9.1 C 6.74 g/m*3 9.1 C 0 km/h
43 06-11-2009 08:24:02 9 C 6.79 g/m*3 9 C 0 km/h
44 06-11-2009 08:36:02 8.9 C 6.92 g/m*3 8.9 C 0 km/h
45 06-11-2009 08:48:02 9 C 6.96 g/m*3 9 C 0 km/h
46 06-11-2009 09:00:02 9.2 C 7.05 g/m*3 9.2 C 0 km/h
47 06-11-2009 09:12:02 9.6 C 7.05 g/m*3 9.6 C 0 km/h
48 06-11-2009 09:24:02 9.8 C 6.96 g/m*3 9.8 C 0 km/h
49 06-11-2009 09:36:01 10 C 6.77 g/m*3 10 C 0 km/h
50 06-11-2009 09:48:02 10.1 C 6.81 g/m*3 10.1 C 0 km/h
Sensor: Nr:Datum:Temp:Abs-Feuchte:Windchill:Wind:
Aussen-T/F 51 06-11-2009 10:00:02 10.1 C 6.71 g/m*3 10.1 C 0 km/h
52 06-11-2009 10:12:01 10.2 C 6.57 g/m*3 10.2 C 0 km/h
53 06-11-2009 10:24:02 10.4 C 6.46 g/m*3 10.4 C 0 km/h
54 06-11-2009 10:36:01 10.4 C 6.36 g/m*3 10.4 C 0 km/h
55 06-11-2009 10:48:02 10.5 C 6.11 g/m*3 10.5 C 0 km/h
56 06-11-2009 11:00:02 10.9 C 5.97 g/m*3 10.9 C 0 km/h
57 06-11-2009 11:12:02 11 C 6.21 g/m*3 11 C 0 km/h
58 06-11-2009 11:24:02 10.8 C 6.23 g/m*3 10.8 C 0 km/h
59 06-11-2009 11:36:03 10.8 C 6.23 g/m*3 10.8 C 0 km/h
60 06-11-2009 11:48:02 10.8 C 6.23 g/m*3 10.8 C 0 km/h
61 06-11-2009 12:00:02 11 C 6.11 g/m*3 11 C 0 km/h
62 06-11-2009 12:12:01 11 C 5.91 g/m*3 11 C 0 km/h
63 06-11-2009 12:24:02 10.7 C 5.8 g/m*3 10.7 C 0 km/h
64 06-11-2009 12:36:02 10.7 C 5.89 g/m*3 10.7 C 0 km/h
65 06-11-2009 12:48:02 10.5 C 5.82 g/m*3 10.5 C 0 km/h
66 06-11-2009 13:00:02 10.6 C 5.86 g/m*3 10.6 C 0 km/h
67 06-11-2009 13:12:02 10.7 C 5.8 g/m*3 10.7 C 0 km/h
68 06-11-2009 13:24:02 10.8 C 5.54 g/m*3 10.8 C 0 km/h
69 06-11-2009 13:36:02 10.7 C 5.5 g/m*3 10.7 C 0 km/h
70 06-11-2009 13:48:01 10.5 C 5.72 g/m*3 10.5 C 0 km/h
71 06-11-2009 14:00:01 10.4 C 5.78 g/m*3 10.4 C 0 km/h
72 06-11-2009 14:12:01 10.4 C 5.88 g/m*3 10.4 C 0 km/h
73 06-11-2009 14:24:01 10.3 C 5.84 g/m*3 10.3 C 0 km/h
74 06-11-2009 14:36:01 10.4 C 5.88 g/m*3 10.4 C 0 km/h
75 06-11-2009 14:48:01 10.5 C 5.82 g/m*3 10.5 C 0 km/h
Sensor: Nr:Datum:Temp:Abs-Feuchte:Windchill:Wind:
Aussen-T/F 76 06-11-2009 15:00:01 10.6 C 5.66 g/m*3 10.6 C 0 km/h
77 06-11-2009 15:12:01 10.6 C 5.56 g/m*3 10.6 C 0 km/h
78 06-11-2009 15:24:01 10.5 C 5.53 g/m*3 10.5 C 0 km/h
79 06-11-2009 15:36:01 10.5 C 5.63 g/m*3 10.5 C 0 km/h
80 06-11-2009 15:48:01 10.3 C 5.65 g/m*3 10.3 C 0 km/h
81 06-11-2009 16:00:01 10.3 C 5.75 g/m*3 10.3 C 0 km/h
82 06-11-2009 16:12:01 10.2 C 5.71 g/m*3 10.2 C 0 km/h
83 06-11-2009 16:24:02 10.1 C 5.67 g/m*3 10.1 C 0 km/h
84 06-11-2009 16:36:01 10 C 5.64 g/m*3 10 C 0 km/h
85 06-11-2009 16:48:02 9.9 C 5.7 g/m*3 9.9 C 0 km/h
86 06-11-2009 17:00:02 9.9 C 5.7 g/m*3 9.9 C 0 km/h
87 06-11-2009 17:12:02 9.8 C 5.85 g/m*3 9.8 C 0 km/h
88 06-11-2009 17:24:03 9.6 C 5.77 g/m*3 9.6 C 0 km/h
89 06-11-2009 17:36:02 9.5 C 5.92 g/m*3 9.5 C 0 km/h
90 06-11-2009 17:48:02 9.4 C 5.97 g/m*3 9.4 C 0 km/h
91 06-11-2009 18:00:02 9.3 C 6.02 g/m*3 9.3 C 0 km/h
92 06-11-2009 18:12:02 9.3 C 6.02 g/m*3 9.3 C 0 km/h
93 06-11-2009 18:24:02 9.3 C 6.02 g/m*3 9.3 C 0 km/h
94 06-11-2009 18:36:02 9.3 C 6.11 g/m*3 9.3 C 0 km/h
95 06-11-2009 18:48:02 9.2 C 6.07 g/m*3 9.2 C 0 km/h
96 06-11-2009 19:00:02 9.2 C 6.07 g/m*3 9.2 C 0 km/h
97 06-11-2009 19:12:01 9.2 C 6.16 g/m*3 9.2 C 0 km/h
98 06-11-2009 19:24:02 9.2 C 6.16 g/m*3 9.2 C 0 km/h
99 06-11-2009 19:36:02 9.2 C 6.16 g/m*3 9.2 C 0 km/h
100 06-11-2009 19:48:02 9.2 C 6.16 g/m*3 9.2 C 0 km/h
Sensor: Nr:Datum:Temp:Abs-Feuchte:Windchill:Wind:
Aussen-T/F 101 06-11-2009 20:00:02 9.2 C 6.25 g/m*3 9.2 C 0 km/h
102 06-11-2009 20:12:02 9.2 C 6.25 g/m*3 9.2 C 0 km/h
103 06-11-2009 20:24:02 9.2 C 6.16 g/m*3 9.2 C 0 km/h
104 06-11-2009 20:36:03 9 C 6.08 g/m*3 9 C 0 km/h
105 06-11-2009 20:48:02 8.8 C 6.18 g/m*3 8.8 C 0 km/h
106 06-11-2009 21:00:02 8.7 C 6.14 g/m*3 8.7 C 0 km/h
107 06-11-2009 21:12:02 8.8 C 6.18 g/m*3 8.8 C 0 km/h
108 06-11-2009 21:24:02 8.7 C 6.14 g/m*3 8.7 C 0 km/h
109 06-11-2009 21:36:01 8.7 C 6.05 g/m*3 8.7 C 0 km/h
110 06-11-2009 21:48:02 8.7 C 6.05 g/m*3 8.7 C 0 km/h
111 06-11-2009 22:00:02 8.6 C 6.02 g/m*3 8.6 C 0 km/h
112 06-11-2009 22:12:01 8.5 C 6.06 g/m*3 8.5 C 0 km/h
113 06-11-2009 22:24:02 8.4 C 6.02 g/m*3 8.4 C 0 km/h
114 06-11-2009 22:36:01 8.2 C 5.95 g/m*3 8.2 C 0 km/h
115 06-11-2009 22:48:03 8.1 C 5.91 g/m*3 8.1 C 0 km/h
116 06-11-2009 23:00:03 7.9 C 6 g/m*3 7.9 C 0 km/h
117 06-11-2009 23:13:03 7.6 C 5.88 g/m*3 7.6 C 0 km/h
118 06-11-2009 23:25:03 7.4 C 5.88 g/m*3 7.4 C 0 km/h
119 06-11-2009 23:37:03 7.5 C 5.92 g/m*3 7.5 C 0 km/h
120 06-11-2009 23:49:03 7.3 C 5.85 g/m*3 7.3 C 0 km/h
121 07-11-2009 00:01:03 7 C 5.81 g/m*3 7 C 0 km/h
122 07-11-2009 00:13:03 6.9 C 5.93 g/m*3 6.9 C 0 km/h
123 07-11-2009 00:25:03 7.1 C 5.93 g/m*3 7.1 C 0 km/h
124 07-11-2009 00:37:03 7.3 C 5.93 g/m*3 7.3 C 0 km/h
125 07-11-2009 00:49:03 7.3 C 5.85 g/m*3 7.3 C 0 km/h
Sensor: Nr:Datum:Temp:Abs-Feuchte:Windchill:Wind:
Aussen-T/F 126 07-11-2009 01:01:03 7.3 C 5.85 g/m*3 7.3 C 0 km/h
127 07-11-2009 01:13:04 7.3 C 5.85 g/m*3 7.3 C 0 km/h
128 07-11-2009 01:25:04 7.4 C 5.81 g/m*3 7.4 C 0 km/h
129 07-11-2009 01:37:04 7.7 C 5.84 g/m*3 7.7 C 0 km/h
130 07-11-2009 01:49:04 7.6 C 5.72 g/m*3 7.6 C 0 km/h
131 07-11-2009 02:01:04 7.7 C 5.68 g/m*3 7.7 C 0 km/h
132 07-11-2009 02:13:04 7.7 C 5.68 g/m*3 7.7 C 0 km/h
133 07-11-2009 02:25:04 7.7 C 5.68 g/m*3 7.7 C 0 km/h
134 07-11-2009 02:37:04 7.8 C 5.63 g/m*3 7.8 C 0 km/h
135 07-11-2009 02:49:04 7.8 C 5.63 g/m*3 7.8 C 0 km/h
136 07-11-2009 03:01:04 7.8 C 5.63 g/m*3 7.8 C 0 km/h
137 07-11-2009 03:13:04 7.8 C 5.63 g/m*3 7.8 C 0 km/h
138 07-11-2009 03:25:04 7.8 C 5.55 g/m*3 7.8 C 0 km/h
139 07-11-2009 03:37:04 7.8 C 5.47 g/m*3 7.8 C 0 km/h
140 07-11-2009 03:49:04 7.8 C 5.55 g/m*3 7.8 C 0 km/h
141 07-11-2009 04:01:04 7.8 C 5.55 g/m*3 7.8 C 0 km/h
142 07-11-2009 04:13:04 7.8 C 5.47 g/m*3 7.8 C 0 km/h
143 07-11-2009 04:25:04 7.8 C 5.47 g/m*3 7.8 C 0 km/h
144 07-11-2009 04:37:04 7.8 C 5.47 g/m*3 7.8 C 0 km/h
145 07-11-2009 04:49:04 7.7 C 5.43 g/m*3 7.7 C 0 km/h
146 07-11-2009 05:01:04 7.7 C 5.43 g/m*3 7.7 C 0 km/h
147 07-11-2009 05:13:05 7.8 C 5.47 g/m*3 7.8 C 0 km/h
148 07-11-2009 05:25:05 7.7 C 5.43 g/m*3 7.7 C 0 km/h
149 07-11-2009 05:37:05 7.7 C 5.35 g/m*3 7.7 C 0 km/h
150 07-11-2009 05:49:05 7.8 C 5.39 g/m*3 7.8 C 0 km/h
Sensor: Nr:Datum:Temp:Abs-Feuchte:Windchill:Wind:
Aussen-T/F 151 07-11-2009 06:01:05 7.7 C 5.35 g/m*3 7.7 C 0 km/h
152 07-11-2009 06:13:05 7.8 C 5.39 g/m*3 7.8 C 0 km/h
153 07-11-2009 06:25:05 7.9 C 5.34 g/m*3 7.9 C 0 km/h
154 07-11-2009 06:37:05 7.9 C 5.26 g/m*3 7.9 C 0 km/h
155 07-11-2009 06:49:05 7.9 C 5.26 g/m*3 7.9 C 0 km/h
156 07-11-2009 07:01:05 7.1 C 5.54 g/m*3 7.1 C 0 km/h
157 07-11-2009 07:13:05 6.6 C 5.81 g/m*3 6.6 C 0 km/h
158 07-11-2009 07:25:05 6.4 C 5.89 g/m*3 6.4 C 0 km/h
159 07-11-2009 07:37:05 6.3 C 6 g/m*3 6.3 C 0 km/h
160 07-11-2009 07:49:05 6.3 C 6.07 g/m*3 6.3 C 0 km/h
161 07-11-2009 08:01:03 6.3 C 6.07 g/m*3 6.3 C 0 km/h
162 07-11-2009 08:13:03 6.8 C 6.35 g/m*3 6.8 C 0 km/h
163 07-11-2009 08:25:03 6.8 C 6.35 g/m*3 6.8 C 0 km/h
164 07-11-2009 08:37:03 6.9 C 6.24 g/m*3 6.9 C 0 km/h
165 07-11-2009 08:49:02 6.9 C 6.24 g/m*3 6.9 C 0 km/h
166 07-11-2009 09:01:01 7.1 C 6.08 g/m*3 7.1 C 0 km/h
167 07-11-2009 09:13:01 7.5 C 6 g/m*3 7.5 C 0 km/h
168 07-11-2009 09:25:02 7.8 C 5.88 g/m*3 7.8 C 0 km/h
169 07-11-2009 09:37:01 8 C 5.7 g/m*3 8 C 0 km/h
170 07-11-2009 09:49:02 8 C 5.79 g/m*3 8 C 0 km/h
171 07-11-2009 10:01:01 7.8 C 5.71 g/m*3 7.8 C 0 km/h
172 07-11-2009 10:13:01 7.5 C 5.76 g/m*3 7.5 C 0 km/h
173 07-11-2009 10:25:01 7.3 C 5.93 g/m*3 7.3 C 0 km/h
174 07-11-2009 10:37:01 7.3 C 5.93 g/m*3 7.3 C 0 km/h
175 07-11-2009 10:49:02 7.5 C 5.92 g/m*3 7.5 C 0 km/h
Sensor: Nr:Datum:Temp:Abs-Feuchte:Windchill:Wind:
Aussen-T/F 176 07-11-2009 11:01:01 7.8 C 5.96 g/m*3 7.8 C 0 km/h
177 07-11-2009 11:13:01 7.8 C 5.96 g/m*3 7.8 C 0 km/h
178 07-11-2009 11:25:02 7.9 C 5.91 g/m*3 7.9 C 0 km/h
179 07-11-2009 11:37:02 7.9 C 5.91 g/m*3 7.9 C 0 km/h
180 07-11-2009 11:49:01 8.1 C 5.91 g/m*3 8.1 C 0 km/h
181 07-11-2009 12:01:02 8.3 C 5.82 g/m*3 8.3 C 0 km/h
182 07-11-2009 12:13:02 8.3 C 5.9 g/m*3 8.3 C 0 km/h
183 07-11-2009 12:25:01 8.3 C 5.9 g/m*3 8.3 C 0 km/h
184 07-11-2009 12:37:02 8.3 C 5.98 g/m*3 8.3 C 0 km/h
185 07-11-2009 12:49:02 8.4 C 6.02 g/m*3 8.4 C 0 km/h
186 07-11-2009 13:01:02 8.5 C 5.98 g/m*3 8.5 C 0 km/h
187 07-11-2009 13:13:02 8.5 C 5.98 g/m*3 8.5 C 0 km/h
188 07-11-2009 13:25:01 8.3 C 6.07 g/m*3 8.3 C 0 km/h
189 07-11-2009 13:37:02 8 C 6.2 g/m*3 8 C 0 km/h
190 07-11-2009 13:49:02 8.5 C 6.4 g/m*3 8.5 C 0 km/h
191 07-11-2009 14:01:02 9.2 C 6.52 g/m*3 9.2 C 0 km/h
192 07-11-2009 14:13:02 9.7 C 6.36 g/m*3 9.7 C 0 km/h
193 07-11-2009 14:25:02 10 C 6.2 g/m*3 10 C 0 km/h
194 07-11-2009 14:37:02 10.5 C 6.21 g/m*3 10.5 C 0 km/h
195 07-11-2009 14:49:02 10.6 C 5.95 g/m*3 10.6 C 0 km/h
196 07-11-2009 15:01:02 10.8 C 6.03 g/m*3 10.8 C 0 km/h
197 07-11-2009 15:13:03 11.2 C 5.98 g/m*3 11.2 C 0 km/h
198 07-11-2009 15:25:02 10.8 C 5.93 g/m*3 10.8 C 0 km/h
199 07-11-2009 15:37:02 10.7 C 5.99 g/m*3 10.7 C 0 km/h
200 07-11-2009 15:49:02 10.3 C 5.94 g/m*3 10.3 C 0 km/h
Sensor: Nr:Datum:Temp:Abs-Feuchte:Windchill:Wind:
Aussen-T/F 201 07-11-2009 16:01:02 10.1 C 5.86 g/m*3 10.1 C 0 km/h
202 07-11-2009 16:13:02 9.9 C 5.98 g/m*3 9.9 C 0 km/h
203 07-11-2009 16:25:02 9.9 C 5.98 g/m*3 9.9 C 0 km/h
204 07-11-2009 16:37:02 9.8 C 5.94 g/m*3 9.8 C 0 km/h
205 07-11-2009 16:49:02 9.4 C 5.88 g/m*3 9.4 C 0 km/h
206 07-11-2009 17:01:02 9 C 5.82 g/m*3 9 C 0 km/h
207 07-11-2009 17:13:02 8.5 C 5.81 g/m*3 8.5 C 0 km/h
208 07-11-2009 17:25:03 8.1 C 5.74 g/m*3 8.1 C 0 km/h
209 07-11-2009 17:37:02 7.9 C 5.91 g/m*3 7.9 C 0 km/h
210 07-11-2009 17:49:03 8 C 6.04 g/m*3 8 C 0 km/h
211 07-11-2009 18:01:02 8.2 C 6.11 g/m*3 8.2 C 0 km/h
212 07-11-2009 18:13:02 8.5 C 6.15 g/m*3 8.5 C 0 km/h
213 07-11-2009 18:25:02 8.7 C 6.14 g/m*3 8.7 C 0 km/h
214 07-11-2009 18:37:02 8.7 C 6.14 g/m*3 8.7 C 0 km/h
215 07-11-2009 18:49:02 8.7 C 6.14 g/m*3 8.7 C 0 km/h
216 07-11-2009 19:01:02 8.6 C 6.1 g/m*3 8.6 C 0 km/h
217 07-11-2009 19:13:02 8.6 C 6.19 g/m*3 8.6 C 0 km/h
218 07-11-2009 19:25:02 8.6 C 6.19 g/m*3 8.6 C 0 km/h
219 07-11-2009 19:37:02 8.5 C 6.15 g/m*3 8.5 C 0 km/h
220 07-11-2009 19:49:02 8.5 C 6.15 g/m*3 8.5 C 0 km/h
221 07-11-2009 20:01:01 8.5 C 6.15 g/m*3 8.5 C 0 km/h
222 07-11-2009 20:13:01 8.4 C 6.11 g/m*3 8.4 C 0 km/h
223 07-11-2009 20:25:02 8.3 C 6.07 g/m*3 8.3 C 0 km/h
224 07-11-2009 20:37:02 8.3 C 6.15 g/m*3 8.3 C 0 km/h
225 07-11-2009 20:49:01 8.2 C 6.11 g/m*3 8.2 C 0 km/h
Sensor: Nr:Datum:Temp:Abs-Feuchte:Windchill:Wind:
Aussen-T/F 226 07-11-2009 21:01:01 8.3 C 6.24 g/m*3 8.3 C 0 km/h
227 07-11-2009 21:13:01 8.3 C 6.24 g/m*3 8.3 C 0 km/h
228 07-11-2009 21:25:01 8.2 C 6.2 g/m*3 8.2 C 0 km/h
229 07-11-2009 21:37:02 8.1 C 6.24 g/m*3 8.1 C 0 km/h
230 07-11-2009 21:49:02 8 C 6.28 g/m*3 8 C 0 km/h
231 07-11-2009 22:01:02 8 C 6.28 g/m*3 8 C 0 km/h
232 07-11-2009 22:13:02 7.9 C 6.32 g/m*3 7.9 C 0 km/h
233 07-11-2009 22:25:02 7.8 C 6.37 g/m*3 7.8 C 0 km/h
234 07-11-2009 22:37:01 7.9 C 6.41 g/m*3 7.9 C 0 km/h
235 07-11-2009 22:49:02 7.9 C 6.41 g/m*3 7.9 C 0 km/h
236 07-11-2009 23:01:01 7.9 C 6.41 g/m*3 7.9 C 0 km/h
237 07-11-2009 23:13:01 7.9 C 6.41 g/m*3 7.9 C 0 km/h
238 07-11-2009 23:25:02 7.8 C 6.37 g/m*3 7.8 C 0 km/h
239 07-11-2009 23:37:02 7.9 C 6.49 g/m*3 7.9 C 0 km/h
240 07-11-2009 23:49:02 7.8 C 6.45 g/m*3 7.8 C 0 km/h
241 08-11-2009 00:02:02 7.6 C 6.44 g/m*3 7.6 C 0 km/h
242 08-11-2009 00:14:02 7.3 C 6.48 g/m*3 7.3 C 0 km/h
243 08-11-2009 00:26:02 7.1 C 6.47 g/m*3 7.1 C 0 km/h
244 08-11-2009 00:38:02 7.1 C 6.55 g/m*3 7.1 C 0 km/h
245 08-11-2009 00:50:02 7.1 C 6.55 g/m*3 7.1 C 0 km/h
246 08-11-2009 01:02:03 7.2 C 6.67 g/m*3 7.2 C 0 km/h
247 08-11-2009 01:14:03 7.2 C 6.67 g/m*3 7.2 C 0 km/h
248 08-11-2009 01:26:03 7.2 C 6.67 g/m*3 7.2 C 0 km/h
249 08-11-2009 01:38:03 7.3 C 6.72 g/m*3 7.3 C 0 km/h
250 08-11-2009 01:50:03 7.3 C 6.64 g/m*3 7.3 C 0 km/h
Sensor: Nr:Datum:Temp:Abs-Feuchte:Windchill:Wind:
Aussen-T/F 251 08-11-2009 02:02:03 7.3 C 6.64 g/m*3 7.3 C 0 km/h
252 08-11-2009 02:14:03 7.3 C 6.64 g/m*3 7.3 C 0 km/h
253 08-11-2009 02:26:03 7.4 C 6.68 g/m*3 7.4 C 0 km/h
254 08-11-2009 02:38:03 7.3 C 6.56 g/m*3 7.3 C 0 km/h
255 08-11-2009 02:50:03 7.2 C 6.52 g/m*3 7.2 C 0 km/h
256 08-11-2009 03:02:03 7.1 C 6.55 g/m*3 7.1 C 0 km/h
257 08-11-2009 03:14:03 7 C 6.51 g/m*3 7 C 0 km/h
258 08-11-2009 03:26:03 7 C 6.59 g/m*3 7 C 0 km/h
259 08-11-2009 03:38:03 7 C 6.59 g/m*3 7 C 0 km/h
260 08-11-2009 03:50:03 7 C 6.59 g/m*3 7 C 0 km/h
261 08-11-2009 04:02:03 7.1 C 6.71 g/m*3 7.1 C 0 km/h
262 08-11-2009 04:14:03 7 C 6.66 g/m*3 7 C 0 km/h
263 08-11-2009 04:26:03 7 C 6.66 g/m*3 7 C 0 km/h
264 08-11-2009 04:38:03 7 C 6.74 g/m*3 7 C 0 km/h
265 08-11-2009 04:50:03 7 C 6.74 g/m*3 7 C 0 km/h
266 08-11-2009 05:02:04 7.1 C 6.79 g/m*3 7.1 C 0 km/h
267 08-11-2009 05:14:04 6.5 C 6.52 g/m*3 6.5 C 0 km/h
268 08-11-2009 05:26:04 6.2 C 6.4 g/m*3 6.2 C 0 km/h
269 08-11-2009 05:38:04 5.8 C 6.3 g/m*3 5.8 C 0 km/h
270 08-11-2009 05:50:04 5.4 C 6.14 g/m*3 5.4 C 0 km/h
271 08-11-2009 06:02:04 5.1 C 6.09 g/m*3 5.1 C 0 km/h
272 08-11-2009 06:14:04 4.9 C 6.01 g/m*3 4.9 C 0 km/h
273 08-11-2009 06:26:04 4.8 C 6.04 g/m*3 4.8 C 0 km/h
274 08-11-2009 06:38:04 5 C 6.12 g/m*3 5 C 0 km/h
275 08-11-2009 06:50:04 5.1 C 6.16 g/m*3 5.1 C 0 km/h
Sensor: Nr:Datum:Temp:Abs-Feuchte:Windchill:Wind:
Aussen-T/F 276 08-11-2009 07:02:04 5.1 C 6.22 g/m*3 5.1 C 0 km/h
277 08-11-2009 07:14:04 4.9 C 6.14 g/m*3 4.9 C 0 km/h
278 08-11-2009 07:26:04 4.6 C 6.02 g/m*3 4.6 C 0 km/h
279 08-11-2009 07:38:04 4.4 C 5.94 g/m*3 4.4 C 0 km/h
280 08-11-2009 07:50:04 4.3 C 5.9 g/m*3 4.3 C 0 km/h
281 08-11-2009 08:02:04 4.1 C 5.82 g/m*3 4.1 C 0 km/h
282 08-11-2009 08:14:04 4 C 5.79 g/m*3 4 C 0 km/h
283 08-11-2009 08:26:04 3.8 C 5.77 g/m*3 3.8 C 0 km/h
284 08-11-2009 08:38:04 3.8 C 5.77 g/m*3 3.8 C 0 km/h
285 08-11-2009 08:50:04 3.7 C 5.73 g/m*3 3.7 C 0 km/h
286 08-11-2009 09:02:05 3.7 C 5.8 g/m*3 3.7 C 0 km/h
287 08-11-2009 09:14:05 3.6 C 5.76 g/m*3 3.6 C 0 km/h
288 08-11-2009 09:26:05 3.7 C 5.8 g/m*3 3.7 C 0 km/h
289 08-11-2009 09:38:05 4 C 5.91 g/m*3 4 C 0 km/h
290 08-11-2009 09:50:05 4.4 C 6.14 g/m*3 4.4 C 0 km/h
291 08-11-2009 10:02:01 4.5 C 6.11 g/m*3 4.5 C 0 km/h
292 08-11-2009 10:14:01 4.5 C 6.11 g/m*3 4.5 C 0 km/h
293 08-11-2009 10:26:02 4.8 C 6.24 g/m*3 4.8 C 0 km/h
294 08-11-2009 10:38:01 5.2 C 6.33 g/m*3 5.2 C 0 km/h
295 08-11-2009 10:50:02 5.6 C 6.5 g/m*3 5.6 C 0 km/h
296 08-11-2009 11:02:01 6.3 C 6.66 g/m*3 6.3 C 0 km/h
297 08-11-2009 11:14:01 6.8 C 6.65 g/m*3 6.8 C 0 km/h
298 08-11-2009 11:26:02 7.1 C 6.24 g/m*3 7.1 C 0 km/h
299 08-11-2009 11:38:01 7.4 C 6.28 g/m*3 7.4 C 0 km/h
300 08-11-2009 11:50:02 7.6 C 6.12 g/m*3 7.6 C 0 km/h
Sensor: Nr:Datum:Temp:Abs-Feuchte:Windchill:Wind:
Aussen-T/F 301 08-11-2009 12:02:03 7.6 C 5.88 g/m*3 7.6 C 0 km/h
302 08-11-2009 12:14:03 7.8 C 5.79 g/m*3 7.8 C 0 km/h
303 08-11-2009 12:26:02 8.2 C 5.78 g/m*3 8.2 C 0 km/h
304 08-11-2009 12:38:02 8.2 C 5.69 g/m*3 8.2 C 0 km/h
305 08-11-2009 12:50:01 8.2 C 5.69 g/m*3 8.2 C 0 km/h
306 08-11-2009 13:02:02 8.2 C 5.78 g/m*3 8.2 C 0 km/h
307 08-11-2009 13:14:02 8.3 C 5.98 g/m*3 8.3 C 0 km/h
308 08-11-2009 13:26:01 8.4 C 5.94 g/m*3 8.4 C 0 km/h
309 08-11-2009 13:38:01 8 C 5.79 g/m*3 8 C 0 km/h
310 08-11-2009 13:50:02 7.9 C 5.91 g/m*3 7.9 C 0 km/h
311 08-11-2009 14:02:02 8.2 C 6.03 g/m*3 8.2 C 0 km/h
312 08-11-2009 14:14:03 8.4 C 6.02 g/m*3 8.4 C 0 km/h
313 08-11-2009 14:26:01 8.4 C 6.02 g/m*3 8.4 C 0 km/h
314 08-11-2009 14:38:01 8.3 C 5.98 g/m*3 8.3 C 0 km/h
315 08-11-2009 14:50:01 8.3 C 5.98 g/m*3 8.3 C 0 km/h
316 08-11-2009 15:02:01 8.5 C 6.06 g/m*3 8.5 C 0 km/h
317 08-11-2009 15:14:01 8.9 C 6.22 g/m*3 8.9 C 0 km/h
318 08-11-2009 15:26:02 9 C 6.08 g/m*3 9 C 0 km/h
319 08-11-2009 15:38:01 8.9 C 6.04 g/m*3 8.9 C 0 km/h
320 08-11-2009 15:50:02 8.9 C 6.22 g/m*3 8.9 C 0 km/h
321 08-11-2009 16:02:02 8.7 C 6.14 g/m*3 8.7 C 0 km/h
322 08-11-2009 16:14:02 8.6 C 6.1 g/m*3 8.6 C 0 km/h
323 08-11-2009 16:26:03 8.5 C 6.15 g/m*3 8.5 C 0 km/h
324 08-11-2009 16:38:02 8.4 C 6.19 g/m*3 8.4 C 0 km/h
325 08-11-2009 16:50:03 8.2 C 6.2 g/m*3 8.2 C 0 km/h
Sensor: Nr:Datum:Temp:Abs-Feuchte:Windchill:Wind:
Aussen-T/F 326 08-11-2009 17:02:02 8.1 C 6.24 g/m*3 8.1 C 0 km/h
327 08-11-2009 17:14:02 8 C 6.2 g/m*3 8 C 0 km/h
328 08-11-2009 17:26:03 8 C 6.2 g/m*3 8 C 0 km/h
329 08-11-2009 17:38:02 7.7 C 6.24 g/m*3 7.7 C 0 km/h
330 08-11-2009 17:50:02 7.5 C 6.24 g/m*3 7.5 C 0 km/h
331 08-11-2009 18:02:02 7.4 C 6.28 g/m*3 7.4 C 0 km/h
332 08-11-2009 18:14:02 7.4 C 6.36 g/m*3 7.4 C 0 km/h
333 08-11-2009 18:26:02 7.2 C 6.44 g/m*3 7.2 C 0 km/h
334 08-11-2009 18:38:03 7.1 C 6.47 g/m*3 7.1 C 0 km/h
335 08-11-2009 18:50:02 7.2 C 6.59 g/m*3 7.2 C 0 km/h
336 08-11-2009 19:02:01 7.3 C 6.64 g/m*3 7.3 C 0 km/h
337 08-11-2009 19:14:01 7.4 C 6.68 g/m*3 7.4 C 0 km/h
338 08-11-2009 19:26:02 7.4 C 6.68 g/m*3 7.4 C 0 km/h
339 08-11-2009 19:38:02 7.4 C 6.68 g/m*3 7.4 C 0 km/h
340 08-11-2009 19:50:02 7.4 C 6.68 g/m*3 7.4 C 0 km/h
341 08-11-2009 20:02:03 7.4 C 6.68 g/m*3 7.4 C 0 km/h
342 08-11-2009 20:14:03 7.5 C 6.72 g/m*3 7.5 C 0 km/h
343 08-11-2009 20:26:02 7.5 C 6.72 g/m*3 7.5 C 0 km/h
344 08-11-2009 20:38:02 7.5 C 6.64 g/m*3 7.5 C 0 km/h
345 08-11-2009 20:50:01 7.5 C 6.64 g/m*3 7.5 C 0 km/h
346 08-11-2009 21:02:02 7.6 C 6.69 g/m*3 7.6 C 0 km/h
347 08-11-2009 21:14:02 7.5 C 6.56 g/m*3 7.5 C 0 km/h
348 08-11-2009 21:26:01 7.4 C 6.52 g/m*3 7.4 C 0 km/h
349 08-11-2009 21:38:01 7.4 C 6.6 g/m*3 7.4 C 0 km/h
350 08-11-2009 21:50:01 7.4 C 6.6 g/m*3 7.4 C 0 km/h
Sensor: Nr:Datum:Temp:Abs-Feuchte:Windchill:Wind:
Aussen-T/F 351 08-11-2009 22:03:02 7.6 C 6.69 g/m*3 7.6 C 0 km/h
352 08-11-2009 22:15:02 7.5 C 6.56 g/m*3 7.5 C 0 km/h
353 08-11-2009 22:27:02 7.5 C 6.56 g/m*3 7.5 C 0 km/h
354 08-11-2009 22:39:02 7.6 C 6.61 g/m*3 7.6 C 0 km/h
355 08-11-2009 22:51:02 7.5 C 6.56 g/m*3 7.5 C 0 km/h
356 08-11-2009 23:03:02 7.5 C 6.56 g/m*3 7.5 C 0 km/h
357 08-11-2009 23:15:02 7.5 C 6.48 g/m*3 7.5 C 0 km/h
358 08-11-2009 23:27:02 7.5 C 6.48 g/m*3 7.5 C 0 km/h
359 08-11-2009 23:39:02 7.4 C 6.44 g/m*3 7.4 C 0 km/h
360 08-11-2009 23:51:02 7.3 C 6.4 g/m*3 7.3 C 0 km/h

Legende:
   Min
   Max


Maximal/Minimal-Werte vom 06.11.2009 - 08.11.2009

Sensor Min Max Avg
Temp
(Aussen-T/F)
3.6 °C
08-11-2009  09:14:05
11.2 °C
07-11-2009  15:13:03
8.15 °C
Abs-Feuchte
(Aussen-T/F)
5.26 g/m*3
07-11-2009  06:37:05
7.05 g/m*3
06-11-2009  09:00:02
6.15 g/m*3
Windchill
(Aussen-T/F)
3.6 C
08-11-2009  09:14:05
11.2 C
07-11-2009  15:13:03
8.13 C

Die Daten stammen von einer Davis Vantage Pro 2 Wetter-Station und werden unter Linux mit der Software wview2wettercgi und aufbereitet. Alle Angaben erfolgen ohne Gewähr für ihre Vollständigkeit oder Richtigkeit.
Kontakt: Rainer Krienke krienke@uni-koblenz.de . Meine Webseiten an der Uni Koblenz oder privat.
Version: $Revision: 0.78 $